createdAt,value
2024-03-11T00:01:46.069Z,21.83
2024-03-11T00:04:13.170Z,26.70
2024-03-11T00:06:41.900Z,23.45
2024-03-11T00:09:21.007Z,25.30
2024-03-11T00:11:56.357Z,27.20
2024-03-11T00:14:27.349Z,28.15
2024-03-11T00:16:54.205Z,23.70
2024-03-11T00:19:20.614Z,25.15
2024-03-11T00:21:47.017Z,26.58
2024-03-11T00:24:13.548Z,23.92
2024-03-11T00:26:41.234Z,21.92
2024-03-11T00:29:07.718Z,25.02
2024-03-11T00:31:37.238Z,28.48
2024-03-11T00:34:04.558Z,25.95
2024-03-11T00:36:32.240Z,24.52
2024-03-11T00:38:58.752Z,25.58
2024-03-11T00:41:25.652Z,22.20
2024-03-11T00:43:52.166Z,26.60
2024-03-11T00:46:19.993Z,29.05
2024-03-11T00:48:46.458Z,28.60
2024-03-11T00:51:12.886Z,31.38
2024-03-11T00:53:39.338Z,23.92
2024-03-11T00:56:09.378Z,26.88
2024-03-11T00:58:36.211Z,28.85
2024-03-11T01:01:03.607Z,26.55
2024-03-11T01:03:33.070Z,27.40
2024-03-11T01:06:00.046Z,31.92
2024-03-11T01:08:27.797Z,23.58
2024-03-11T01:10:54.272Z,23.42
2024-03-11T01:13:20.715Z,26.55
2024-03-11T01:15:47.646Z,21.15
2024-03-11T01:18:15.285Z,25.58
2024-03-11T01:20:45.172Z,24.85
2024-03-11T01:23:11.931Z,27.27
2024-03-11T01:25:38.380Z,26.05
2024-03-11T01:28:08.966Z,30.05
2024-03-11T01:30:36.218Z,26.33
2024-03-11T01:33:05.392Z,29.90
2024-03-11T01:35:32.566Z,27.58
2024-03-11T01:37:59.124Z,28.65
2024-03-11T01:40:28.853Z,25.20
2024-03-11T01:42:55.798Z,23.33
2024-03-11T01:45:23.796Z,29.05
2024-03-11T01:47:51.621Z,22.52
2024-03-11T01:50:18.422Z,24.42
2024-03-11T01:52:47.050Z,25.73
2024-03-11T01:55:13.553Z,23.25
2024-03-11T01:57:40.589Z,23.52
2024-03-11T02:00:09.948Z,26.20
2024-03-11T02:02:36.993Z,22.88
2024-03-11T02:05:05.784Z,20.67
2024-03-11T02:07:32.360Z,22.63
2024-03-11T02:09:58.749Z,24.05
2024-03-11T02:12:25.428Z,24.65
2024-03-11T02:14:51.875Z,23.40
2024-03-11T02:17:18.664Z,24.10
2024-03-11T02:19:45.084Z,23.60
2024-03-11T02:22:11.494Z,25.27
2024-03-11T02:24:37.915Z,27.40
2024-03-11T02:27:04.476Z,25.65
2024-03-11T02:29:31.405Z,24.83
2024-03-11T02:31:58.126Z,22.30
2024-03-11T02:34:24.600Z,24.83
2024-03-11T02:36:55.103Z,24.98
2024-03-11T02:39:21.551Z,26.25
2024-03-11T02:41:48.468Z,24.98
2024-03-11T02:44:15.081Z,25.35
2024-03-11T02:46:42.984Z,26.17
2024-03-11T02:49:09.879Z,26.95
2024-03-11T02:51:37.428Z,26.27
2024-03-11T02:54:05.830Z,25.48
2024-03-11T02:56:33.089Z,21.65
2024-03-11T02:58:59.929Z,24.45
2024-03-11T03:01:26.376Z,29.25
2024-03-11T03:03:52.838Z,26.83
2024-03-11T03:06:19.447Z,28.95
2024-03-11T03:08:46.110Z,19.60
2024-03-11T03:11:12.894Z,25.30
2024-03-11T03:13:40.597Z,27.42
2024-03-11T03:16:08.057Z,23.23
2024-03-11T03:18:35.502Z,30.50
2024-03-11T03:21:05.014Z,25.75
2024-03-11T03:23:31.540Z,24.30
2024-03-11T03:25:58.810Z,21.75
2024-03-11T03:28:25.735Z,22.33
2024-03-11T03:30:54.582Z,23.15
2024-03-11T03:33:22.200Z,24.85
2024-03-11T03:35:48.745Z,22.90
2024-03-11T03:38:16.685Z,24.98
2024-03-11T03:40:43.356Z,25.13
2024-03-11T03:43:09.749Z,22.30
2024-03-11T03:45:36.151Z,24.10
2024-03-11T03:48:02.750Z,22.08
2024-03-11T03:50:29.279Z,24.08
2024-03-11T03:52:55.711Z,22.00
2024-03-11T03:55:22.816Z,25.83
2024-03-11T03:57:49.203Z,24.55
2024-03-11T04:00:19.179Z,27.45
2024-03-11T04:02:50.451Z,24.92
2024-03-11T04:05:18.248Z,24.83
2024-03-11T04:07:44.850Z,29.58
2024-03-11T04:10:14.444Z,26.38
2024-03-11T04:12:43.609Z,27.92
2024-03-11T04:15:13.728Z,24.30
2024-03-11T04:17:43.593Z,22.80
2024-03-11T04:20:14.239Z,21.25
2024-03-11T04:22:42.720Z,23.67
2024-03-11T04:25:15.216Z,22.45
2024-03-11T04:27:41.605Z,26.60
2024-03-11T04:30:08.468Z,24.05
2024-03-11T04:32:35.069Z,25.50
2024-03-11T04:35:02.327Z,27.17
2024-03-11T04:37:28.752Z,26.58
2024-03-11T04:39:55.144Z,28.02
2024-03-11T04:42:22.536Z,20.73
2024-03-11T04:44:49.139Z,21.92
2024-03-11T04:47:15.614Z,25.30
2024-03-11T04:49:42.938Z,26.00
2024-03-11T04:52:09.557Z,26.95
2024-03-11T04:54:35.974Z,22.85
2024-03-11T04:57:02.967Z,22.38
2024-03-11T04:59:29.353Z,23.85
2024-03-11T05:01:55.784Z,27.27
2024-03-11T05:04:22.163Z,27.00
2024-03-11T05:06:48.566Z,22.55
2024-03-11T05:09:16.395Z,24.05
2024-03-11T05:11:42.875Z,27.23
2024-03-11T05:14:09.435Z,26.10
2024-03-11T05:16:37.189Z,22.23
2024-03-11T05:19:04.644Z,27.20
2024-03-11T05:21:31.154Z,26.92
2024-03-11T05:23:57.595Z,24.70
2024-03-11T05:26:24.383Z,31.05
2024-03-11T05:28:50.930Z,27.05
2024-03-11T05:31:17.779Z,26.50
2024-03-11T05:33:44.390Z,26.60
2024-03-11T05:36:11.732Z,20.52
2024-03-11T05:38:38.195Z,22.38
2024-03-11T05:41:04.701Z,21.38
2024-03-11T05:43:31.105Z,22.45
2024-03-11T05:45:57.619Z,19.88
2024-03-11T05:48:24.004Z,27.85
2024-03-11T05:50:52.348Z,23.30
2024-03-11T05:53:20.554Z,25.73
2024-03-11T05:55:47.382Z,21.35
2024-03-11T05:58:16.743Z,29.20
2024-03-11T06:00:47.509Z,23.80
2024-03-11T06:03:14.114Z,26.08
2024-03-11T06:05:41.089Z,23.10
2024-03-11T06:08:07.859Z,24.77
2024-03-11T06:10:34.644Z,21.75
2024-03-11T06:13:01.119Z,21.33
2024-03-11T06:15:28.280Z,25.73
2024-03-11T06:17:55.292Z,23.33
2024-03-11T06:20:21.805Z,27.95
2024-03-11T06:22:48.246Z,29.52
2024-03-11T06:25:16.424Z,24.10
2024-03-11T06:27:44.573Z,23.55
2024-03-11T06:30:11.235Z,26.55
2024-03-11T06:32:38.422Z,27.88
2024-03-11T06:35:06.383Z,27.77
2024-03-11T06:37:33.301Z,23.08
2024-03-11T06:40:00.984Z,29.33
2024-03-11T06:42:27.572Z,25.15
2024-03-11T06:44:54.014Z,28.63
2024-03-11T06:47:20.445Z,26.13
2024-03-11T06:49:47.252Z,22.00
2024-03-11T06:52:13.680Z,22.45
2024-03-11T06:54:41.994Z,22.10
2024-03-11T06:57:08.466Z,25.85
2024-03-11T06:59:35.700Z,21.15
2024-03-11T07:02:03.031Z,21.33
2024-03-11T07:04:29.483Z,22.38
2024-03-11T07:06:55.953Z,23.95
2024-03-11T07:09:22.324Z,24.77
2024-03-11T07:11:48.738Z,27.58
2024-03-11T07:14:15.986Z,32.55
2024-03-11T07:16:43.697Z,27.63
2024-03-11T07:19:14.137Z,26.02
2024-03-11T07:21:41.025Z,24.80
2024-03-11T07:24:07.929Z,21.45
2024-03-11T07:26:34.473Z,23.95
2024-03-11T07:29:00.984Z,27.17
2024-03-11T07:31:27.471Z,22.50
2024-03-11T07:33:54.065Z,30.15
2024-03-11T07:36:20.544Z,26.95
2024-03-11T07:38:47.576Z,21.08
2024-03-11T07:41:14.828Z,25.75
2024-03-11T07:43:41.503Z,29.65
2024-03-11T07:46:07.948Z,25.02
2024-03-11T07:48:34.920Z,25.40
2024-03-11T07:51:01.481Z,21.60
2024-03-11T07:53:27.907Z,30.30
2024-03-11T07:55:54.419Z,25.67
2024-03-11T07:58:20.857Z,26.15
2024-03-11T08:00:47.308Z,25.88
2024-03-11T08:03:15.629Z,26.50
2024-03-11T08:05:42.222Z,24.08
2024-03-11T08:08:10.029Z,24.83
2024-03-11T08:10:36.694Z,24.83
2024-03-11T08:13:03.079Z,27.75
2024-03-11T08:15:29.616Z,30.45
2024-03-11T08:17:56.837Z,26.77
2024-03-11T08:20:25.120Z,23.10
2024-03-11T08:25:26.607Z,28.20
2024-03-11T08:27:53.897Z,24.90
2024-03-11T08:30:22.170Z,23.85
2024-03-11T08:32:48.802Z,34.65
2024-03-11T08:35:16.006Z,24.73
2024-03-11T08:37:42.467Z,25.42
2024-03-11T08:40:09.690Z,24.67
2024-03-11T08:42:37.064Z,26.30
2024-03-11T08:45:05.164Z,21.88
2024-03-11T08:47:31.598Z,26.67
2024-03-11T08:49:59.652Z,23.27
2024-03-11T08:52:26.065Z,23.98
2024-03-11T08:54:52.433Z,24.20
2024-03-11T08:57:19.205Z,29.05
2024-03-11T08:59:46.465Z,26.08
2024-03-11T09:02:15.892Z,25.55
2024-03-11T09:04:48.324Z,27.52
2024-03-11T09:07:14.793Z,27.60
2024-03-11T09:09:41.408Z,25.15
2024-03-11T09:12:08.139Z,27.58
2024-03-11T09:14:34.691Z,25.48
2024-03-11T09:17:04.813Z,28.00
2024-03-11T09:19:34.198Z,29.90
2024-03-11T09:22:00.648Z,27.65
2024-03-11T09:24:27.844Z,28.20
2024-03-11T09:26:55.015Z,31.40
2024-03-11T09:29:22.592Z,27.33
2024-03-11T09:31:49.734Z,31.10
2024-03-11T09:34:16.889Z,28.88
2024-03-11T09:36:43.346Z,26.42
2024-03-11T09:39:12.883Z,26.70
2024-03-11T09:41:43.036Z,28.35
2024-03-11T09:44:21.116Z,28.52
2024-03-11T09:46:52.076Z,24.77
2024-03-11T09:49:20.737Z,26.48
2024-03-11T09:51:47.737Z,26.17
2024-03-11T09:54:15.068Z,28.20
2024-03-11T09:56:42.165Z,29.35
2024-03-11T09:59:10.902Z,30.38
2024-03-11T10:01:44.060Z,26.98
2024-03-11T10:04:10.774Z,28.48
2024-03-11T10:06:40.580Z,28.35
2024-03-11T10:09:09.999Z,29.75
2024-03-11T10:11:37.770Z,30.77
2024-03-11T10:14:20.097Z,27.52
2024-03-11T10:16:46.614Z,29.55
2024-03-11T10:22:01.722Z,31.25
2024-03-11T10:24:31.585Z,29.67
2024-03-11T10:29:33.603Z,27.88
2024-03-11T10:34:52.568Z,27.08
2024-03-11T10:37:19.480Z,32.92
2024-03-11T10:39:49.978Z,31.60
2024-03-11T10:42:29.657Z,27.90
2024-03-11T10:44:56.727Z,30.35
2024-03-11T10:47:23.846Z,27.30
2024-03-11T10:49:51.677Z,28.55
2024-03-11T10:52:22.465Z,30.08
2024-03-11T10:55:02.950Z,29.73
2024-03-11T10:57:46.795Z,28.80
2024-03-11T11:00:20.664Z,27.45
2024-03-11T11:02:50.566Z,29.30
2024-03-11T11:05:25.279Z,27.67
2024-03-11T11:07:54.215Z,29.30
2024-03-11T11:10:22.625Z,31.73
2024-03-11T11:12:53.880Z,27.85
2024-03-11T11:15:21.794Z,25.52
2024-03-11T11:17:49.337Z,30.92
2024-03-11T11:20:32.109Z,31.75
2024-03-11T11:23:01.263Z,27.38
2024-03-11T11:25:52.766Z,33.15
2024-03-11T11:28:29.652Z,29.75
2024-03-11T11:31:28.472Z,30.23
2024-03-11T11:33:56.454Z,29.80
2024-03-11T11:36:39.211Z,29.10
2024-03-11T11:39:15.264Z,31.88
2024-03-11T11:41:43.941Z,30.30
2024-03-11T11:44:10.316Z,33.50
2024-03-11T11:46:48.901Z,31.42
2024-03-11T11:49:25.413Z,30.70
2024-03-11T11:51:52.991Z,31.17
2024-03-11T11:54:30.203Z,30.02
2024-03-11T11:57:13.267Z,32.30
2024-03-11T11:59:41.848Z,27.88
2024-03-11T12:02:21.678Z,24.60
2024-03-11T12:04:49.512Z,24.67
2024-03-11T12:07:23.817Z,29.38
2024-03-11T12:09:54.346Z,26.98
2024-03-11T12:12:44.397Z,25.40
2024-03-11T12:15:22.814Z,28.50
2024-03-11T12:17:49.815Z,29.10
2024-03-11T12:20:31.468Z,25.98
2024-03-11T12:23:01.673Z,21.95
2024-03-11T12:25:34.046Z,23.15
2024-03-11T12:28:09.449Z,20.48
2024-03-11T12:30:38.333Z,20.52
2024-03-11T12:33:06.166Z,24.10
2024-03-11T12:35:45.354Z,22.17
2024-03-11T12:38:14.584Z,22.13
2024-03-11T12:40:47.608Z,23.27
2024-03-11T12:43:21.167Z,25.33
2024-03-11T12:45:50.786Z,22.10
2024-03-11T12:48:17.502Z,19.35
2024-03-11T12:50:44.907Z,20.60
2024-03-11T12:53:14.397Z,26.73
2024-03-11T12:55:41.853Z,23.52
2024-03-11T12:58:13.518Z,23.42
2024-03-11T13:00:46.701Z,23.70
2024-03-11T13:03:17.838Z,21.55
2024-03-11T13:05:56.278Z,21.05
2024-03-11T13:08:23.303Z,23.75
2024-03-11T13:10:49.748Z,28.50
2024-03-11T13:13:17.567Z,26.20
2024-03-11T13:15:44.804Z,24.67
2024-03-11T13:18:13.315Z,22.88
2024-03-11T13:20:40.856Z,24.13
2024-03-11T13:23:07.811Z,19.55
2024-03-11T13:25:34.232Z,24.45
2024-03-11T13:28:01.192Z,21.80
2024-03-11T13:30:28.165Z,23.85
2024-03-11T13:32:58.428Z,24.35
2024-03-11T13:35:25.443Z,22.02
2024-03-11T13:37:52.141Z,23.48
2024-03-11T13:40:20.457Z,25.20
2024-03-11T13:42:46.982Z,27.33
2024-03-11T13:45:13.824Z,25.60
2024-03-11T13:47:40.355Z,26.55
2024-03-11T13:50:15.968Z,28.45
2024-03-11T13:52:45.182Z,26.73
2024-03-11T13:55:16.524Z,28.30
2024-03-11T13:57:46.120Z,27.08
2024-03-11T14:00:19.964Z,35.88
2024-03-11T14:02:47.973Z,33.22
2024-03-11T14:05:17.298Z,29.70
2024-03-11T14:07:47.049Z,34.13
2024-03-11T14:10:13.937Z,31.15
2024-03-11T14:12:41.445Z,28.42
2024-03-11T14:15:11.783Z,27.42
2024-03-11T14:17:48.604Z,27.90
2024-03-11T14:20:22.083Z,30.08
2024-03-11T14:22:49.103Z,28.50
2024-03-11T14:25:17.808Z,33.25
2024-03-11T14:27:46.039Z,26.42
2024-03-11T14:30:16.087Z,31.58
2024-03-11T14:32:43.365Z,32.17
2024-03-11T14:35:09.880Z,31.00
2024-03-11T14:37:38.007Z,33.67
2024-03-11T14:40:04.924Z,33.97
2024-03-11T14:42:31.437Z,36.25
2024-03-11T14:44:58.338Z,29.85
2024-03-11T14:47:26.053Z,29.42
2024-03-11T14:49:52.535Z,28.08
2024-03-11T14:52:19.717Z,25.42
2024-03-11T14:54:46.173Z,28.45
2024-03-11T14:57:14.182Z,32.03
2024-03-11T14:59:44.020Z,31.25
2024-03-11T15:02:12.700Z,26.95
2024-03-11T15:04:41.627Z,25.73
2024-03-11T15:07:08.539Z,26.20
2024-03-11T15:09:41.094Z,34.22
2024-03-11T15:12:09.321Z,26.40
2024-03-11T15:14:42.700Z,27.48
2024-03-11T15:17:09.463Z,24.83
2024-03-11T15:25:10.399Z,23.20
2024-03-11T15:27:37.027Z,26.15
2024-03-11T15:35:22.243Z,33.17
2024-03-11T15:37:52.890Z,22.40
2024-03-11T15:40:22.397Z,21.92
2024-03-11T15:42:50.329Z,20.13
2024-03-11T15:45:20.517Z,17.05
2024-03-11T15:47:47.272Z,17.55
2024-03-11T15:50:21.512Z,17.95
2024-03-11T15:52:57.217Z,18.95
2024-03-11T15:55:27.007Z,20.17
2024-03-11T15:58:04.598Z,23.00
2024-03-11T16:00:36.467Z,19.02
2024-03-11T16:03:31.015Z,19.67
2024-03-11T16:05:57.578Z,19.02
2024-03-11T16:18:45.192Z,18.67
2024-03-11T16:21:14.148Z,20.65
2024-03-11T16:23:41.726Z,22.55
2024-03-11T16:26:28.645Z,25.15
2024-03-11T16:28:57.123Z,14.40
2024-03-11T16:31:26.903Z,16.88
2024-03-11T16:34:39.216Z,16.90
2024-03-11T16:37:06.195Z,17.95
2024-03-11T16:40:07.647Z,17.25
2024-03-11T16:42:39.957Z,23.40
2024-03-11T16:45:09.614Z,19.17
2024-03-11T16:47:39.971Z,13.10
2024-03-11T16:50:08.821Z,13.55
2024-03-11T16:52:38.133Z,15.13
2024-03-11T16:55:11.900Z,12.43
2024-03-11T16:57:38.891Z,16.48
2024-03-11T17:00:11.148Z,14.48
2024-03-11T17:02:41.859Z,13.98
2024-03-11T17:05:08.408Z,12.98
2024-03-11T17:07:34.912Z,17.88
2024-03-11T17:10:01.398Z,12.82
2024-03-11T17:12:30.031Z,12.02
2024-03-11T17:15:00.573Z,12.57
2024-03-11T17:17:27.060Z,10.43
2024-03-11T17:19:53.546Z,10.55
2024-03-11T17:22:20.015Z,10.13
2024-03-11T17:24:47.192Z,9.73
2024-03-11T17:27:14.004Z,6.78
2024-03-11T17:29:40.368Z,6.97
2024-03-11T17:32:07.978Z,8.05
2024-03-11T17:34:34.826Z,8.07
2024-03-11T17:37:01.400Z,9.98
2024-03-11T17:39:28.569Z,7.13
2024-03-11T17:41:55.033Z,10.65
2024-03-11T17:44:21.402Z,11.10
2024-03-11T17:46:47.785Z,10.60
2024-03-11T17:49:14.181Z,9.18
2024-03-11T17:51:41.408Z,9.20
2024-03-11T17:54:07.840Z,8.30
2024-03-11T17:56:34.496Z,10.48
2024-03-11T17:59:03.790Z,12.73
2024-03-11T18:01:32.010Z,11.30
2024-03-11T18:04:14.232Z,10.27
2024-03-11T18:06:41.101Z,11.95
2024-03-11T18:09:47.541Z,13.70
2024-03-11T18:12:14.289Z,14.27
2024-03-11T18:14:40.749Z,11.52
2024-03-11T18:19:52.463Z,10.48
2024-03-11T18:22:22.355Z,12.15
2024-03-11T18:24:49.417Z,10.25
2024-03-11T18:27:16.223Z,11.77
2024-03-11T18:29:43.585Z,12.57
2024-03-11T18:32:11.096Z,12.38
2024-03-11T18:34:40.708Z,13.63
2024-03-11T18:37:07.275Z,14.48
2024-03-11T18:39:34.268Z,13.43
2024-03-11T18:42:00.751Z,11.45
2024-03-11T18:44:27.189Z,12.32
2024-03-11T18:46:53.679Z,11.52
2024-03-11T18:49:20.177Z,11.55
2024-03-11T18:51:46.731Z,12.35
2024-03-11T18:54:13.341Z,14.20
2024-03-11T18:56:41.293Z,14.65
2024-03-11T18:59:07.662Z,13.18
2024-03-11T19:01:36.979Z,15.00
2024-03-11T19:06:37.646Z,17.20
2024-03-11T19:09:04.452Z,17.40
2024-03-11T19:11:30.988Z,21.88
2024-03-11T19:14:03.949Z,19.10
2024-03-11T19:16:32.519Z,20.40
2024-03-11T19:19:02.233Z,22.75
2024-03-11T19:21:29.721Z,25.63
2024-03-11T19:23:56.563Z,31.88
2024-03-11T19:26:26.689Z,28.38
2024-03-11T19:28:53.508Z,23.90
2024-03-11T19:31:19.915Z,26.45
2024-03-11T19:33:47.540Z,29.05
2024-03-11T19:36:17.013Z,25.67
2024-03-11T19:39:10.629Z,28.02
2024-03-11T19:41:44.424Z,26.05
2024-03-11T19:44:14.084Z,17.90
2024-03-11T19:46:46.633Z,23.65
2024-03-11T19:49:13.010Z,23.65
2024-03-11T19:51:58.513Z,20.33
2024-03-11T19:54:43.203Z,16.10
2024-03-11T19:57:17.054Z,19.77
2024-03-11T20:00:02.205Z,22.20
2024-03-11T20:02:54.694Z,18.83
2024-03-11T20:05:56.848Z,20.02
2024-03-11T20:08:41.921Z,16.50
2024-03-11T20:11:14.376Z,15.20
2024-03-11T20:13:59.570Z,17.33
2024-03-11T20:16:55.349Z,16.95
2024-03-11T20:19:40.501Z,17.85
2024-03-11T20:22:25.403Z,19.98
2024-03-11T20:25:11.637Z,18.85
2024-03-11T20:30:11.679Z,18.65
2024-03-11T20:32:46.251Z,15.95
2024-03-11T20:35:12.708Z,16.95
2024-03-11T20:37:39.341Z,16.73
2024-03-11T20:40:07.323Z,16.75
2024-03-11T20:42:35.172Z,17.45
2024-03-11T20:45:02.969Z,16.20
2024-03-11T20:47:29.439Z,16.25
2024-03-11T20:49:55.873Z,19.63
2024-03-11T20:52:22.276Z,17.70
2024-03-11T20:54:48.709Z,21.23
2024-03-11T20:57:15.402Z,17.85
2024-03-11T20:59:41.824Z,18.63
2024-03-11T21:02:09.202Z,19.33
2024-03-11T21:04:37.210Z,20.13
2024-03-11T21:07:06.492Z,23.33
2024-03-11T21:09:35.770Z,19.38
2024-03-11T21:12:02.997Z,18.65
2024-03-11T21:14:29.446Z,16.33
2024-03-11T21:16:59.448Z,18.75
2024-03-11T21:19:37.636Z,17.05
2024-03-11T21:22:17.616Z,19.48
2024-03-11T21:24:47.228Z,16.92
2024-03-11T21:27:16.487Z,16.45
2024-03-11T21:29:43.799Z,13.30
2024-03-11T21:32:13.990Z,16.70
2024-03-11T21:34:44.694Z,15.25
2024-03-11T21:37:11.190Z,15.32
2024-03-11T21:39:38.097Z,16.70
2024-03-11T21:42:04.689Z,16.45
2024-03-11T21:44:31.052Z,16.90
2024-03-11T21:46:59.267Z,16.25
2024-03-11T21:49:25.675Z,15.55
2024-03-11T21:51:54.712Z,18.60
2024-03-11T21:54:21.325Z,14.30
2024-03-11T21:56:49.712Z,14.85
2024-03-11T21:59:16.164Z,15.73
2024-03-11T22:01:42.545Z,14.35
2024-03-11T22:04:09.028Z,15.63
2024-03-11T22:06:36.131Z,14.25
2024-03-11T22:09:02.578Z,15.60
2024-03-11T22:11:29.507Z,15.68
2024-03-11T22:13:56.062Z,15.68
2024-03-11T22:16:22.961Z,14.27
2024-03-11T22:18:49.534Z,14.80
2024-03-11T22:21:16.213Z,16.05
2024-03-11T22:23:44.946Z,16.85
2024-03-11T22:26:11.389Z,13.32
2024-03-11T22:28:37.870Z,15.20
2024-03-11T22:31:06.968Z,15.98
2024-03-11T22:33:34.036Z,16.63
2024-03-11T22:36:00.523Z,12.18
2024-03-11T22:38:26.870Z,15.18
2024-03-11T22:40:53.277Z,14.57
2024-03-11T22:43:19.710Z,15.38
2024-03-11T22:45:46.891Z,17.20
2024-03-11T22:48:13.313Z,19.75
2024-03-11T22:50:40.745Z,14.70
2024-03-11T22:53:07.489Z,16.00
2024-03-11T22:55:33.904Z,14.57
2024-03-11T22:58:00.406Z,14.05
2024-03-11T23:00:36.242Z,16.42
2024-03-11T23:03:05.291Z,16.52
2024-03-11T23:05:31.712Z,17.08
2024-03-11T23:07:59.529Z,21.92
2024-03-11T23:10:28.206Z,13.23
2024-03-11T23:12:55.795Z,15.70
2024-03-11T23:15:23.581Z,21.02
2024-03-11T23:17:51.729Z,16.83
2024-03-11T23:20:19.162Z,15.07
2024-03-11T23:22:46.662Z,18.33
2024-03-11T23:25:13.103Z,19.45
2024-03-11T23:27:40.343Z,15.70
2024-03-11T23:30:14.314Z,17.58
2024-03-11T23:32:41.617Z,17.58
2024-03-11T23:35:11.064Z,19.30
2024-03-11T23:37:38.284Z,17.77
2024-03-11T23:40:19.240Z,17.33
2024-03-11T23:42:46.704Z,15.70
2024-03-11T23:45:13.875Z,19.23
2024-03-11T23:47:40.508Z,13.95
2024-03-11T23:50:07.117Z,19.00
2024-03-11T23:52:33.642Z,19.45
2024-03-11T23:55:00.125Z,17.42
2024-03-11T23:57:26.630Z,19.17
2024-03-11T23:59:53.758Z,15.05
